METAR AND TAF INFORMATION
METAR FOR KJFK
ADDS - METARS form results

(1936 UTC 26 April 2018)
Data provider http://aviationweather.gov/adds/metars/
 
METAR text: KJFK 261851Z 28016KT 10SM FEW055 SCT250 20/06 A2976 RMK AO2 SLP076 T02000056
Conditions at: KJFK (NYC/JFK ARPT , NY, US) observed 1851 UTC 26 April 2018
Temperature: 20.0°C (68°F)
Dewpoint: 5.6°C (42°F) [RH = 39%]
Pressure (altimeter): 29.76 inches Hg (1007.9 mb)
[Sea-level pressure: 1007.6 mb]
Winds: from the W (280 degrees) at 18 MPH (16 knots; 8.3 m/s)
Visibility: 10 or more miles (16+ km)
Ceiling: at least 12,000 feet AGL
Clouds: few clouds at 5500 feet AGL
scattered clouds at 25000 feet AGL
Weather: no significant weather observed at this time

Forecast for: KJFK (NYC/JFK ARPT , NY, US)
Text: KJFK 261914Z 2619/2724 28016KT P6SM FEW040 SCT250
Forecast period: 1900 to 2300 UTC 26 April 2018
Forecast type: FROM: standard forecast or significant change
Winds: from the W (280 degrees) at 18 MPH (16 knots; 8.3 m/s)
Visibility: 6 or more miles (10+ km)
Clouds: few clouds at 4000 feet AGL
scattered clouds at 25000 feet AGL
Weather: no significant weather forecast for this period
Forecast for: KJFK (NYC/JFK ARPT , NY, US)
Text: KJFK 261914Z 2619/2724 28016KT P6SM FEW040 SCT250
Forecast period: 1900 to 2300 UTC 26 April 2018
Forecast type: FROM: standard forecast or significant change
Winds: from the W (280 degrees) at 18 MPH (16 knots; 8.3 m/s)
Visibility: 6 or more miles (10+ km)
Clouds: few clouds at 4000 feet AGL
scattered clouds at 25000 feet AGL
Weather: no significant weather forecast for this period
Forecast for: KJFK (NYC/JFK ARPT , NY, US)
Text: KJFK 261914Z 2619/2724 28016KT P6SM FEW040 SCT250
Forecast period: 2300 UTC 26 April 2018 to 0300 UTC 27 April 2018
Forecast type: FROM: standard forecast or significant change
Winds: from the SW (230 degrees) at 12 MPH (10 knots; 5.2 m/s)
Visibility: 6 or more miles (10+ km)
Clouds: scattered clouds at 25000 feet AGL
Weather: no significant weather forecast for this period
Forecast for: KJFK (NYC/JFK ARPT , NY, US)
Text: KJFK 261914Z 2619/2724 28016KT P6SM FEW040 SCT250
Forecast period: 2300 UTC 26 April 2018 to 0300 UTC 27 April 2018
Forecast type: FROM: standard forecast or significant change
Winds: from the SW (230 degrees) at 12 MPH (10 knots; 5.2 m/s)
Visibility: 6 or more miles (10+ km)
Clouds: scattered clouds at 25000 feet AGL
Weather: no significant weather forecast for this period
Forecast for: KJFK (NYC/JFK ARPT , NY, US)
Text: KJFK 261914Z 2619/2724 28016KT P6SM FEW040 SCT250
Forecast period: 0300 to 1200 UTC 27 April 2018
Forecast type: FROM: standard forecast or significant change
Winds: variable direction winds at 5 MPH (4 knots; 2.1 m/s)
Visibility: 6 or more miles (10+ km)
Ceiling: 20000 feet AGL
Clouds: broken clouds at 20000 feet AGL
Weather: no significant weather forecast for this period
Forecast for: KJFK (NYC/JFK ARPT , NY, US)
Text: KJFK 261914Z 2619/2724 28016KT P6SM FEW040 SCT250
Forecast period: 0300 to 1200 UTC 27 April 2018
Forecast type: FROM: standard forecast or significant change
Winds: variable direction winds at 5 MPH (4 knots; 2.1 m/s)
Visibility: 6 or more miles (10+ km)
Ceiling: 20000 feet AGL
Clouds: broken clouds at 20000 feet AGL
Weather: no significant weather forecast for this period
Forecast for: KJFK (NYC/JFK ARPT , NY, US)
Text: KJFK 261914Z 2619/2724 28016KT P6SM FEW040 SCT250
Forecast period: 1200 to 1400 UTC 27 April 2018
Forecast type: FROM: standard forecast or significant change
Winds: from the ESE (110 degrees) at 6 MPH (5 knots; 2.6 m/s)
Visibility: 6 or more miles (10+ km)
Ceiling: 12000 feet AGL
Clouds: scattered clouds at 3500 feet AGL
scattered clouds at 8000 feet AGL
broken clouds at 12000 feet AGL
Weather: no significant weather forecast for this period
Forecast for: KJFK (NYC/JFK ARPT , NY, US)
Text: KJFK 261914Z 2619/2724 28016KT P6SM FEW040 SCT250
Forecast period: 1200 to 1400 UTC 27 April 2018
Forecast type: FROM: standard forecast or significant change
Winds: from the ESE (110 degrees) at 6 MPH (5 knots; 2.6 m/s)
Visibility: 6 or more miles (10+ km)
Ceiling: 12000 feet AGL
Clouds: scattered clouds at 3500 feet AGL
scattered clouds at 8000 feet AGL
broken clouds at 12000 feet AGL
Weather: no significant weather forecast for this period
Forecast for: KJFK (NYC/JFK ARPT , NY, US)
Text: KJFK 261914Z 2619/2724 28016KT P6SM FEW040 SCT250
Forecast period: 1400 to 1700 UTC 27 April 2018
Forecast type: FROM: standard forecast or significant change
Winds: from the ESE (120 degrees) at 7 MPH (6 knots; 3.1 m/s)
Visibility: 4 miles (6 km)
Ceiling: 6000 feet AGL
Clouds: scattered clouds at 2500 feet AGL
broken clouds at 6000 feet AGL
Weather: -SHRA  (light rain showers)
Forecast for: KJFK (NYC/JFK ARPT , NY, US)
Text: KJFK 261914Z 2619/2724 28016KT P6SM FEW040 SCT250
Forecast period: 1400 to 1700 UTC 27 April 2018
Forecast type: FROM: standard forecast or significant change
Winds: from the ESE (120 degrees) at 7 MPH (6 knots; 3.1 m/s)
Visibility: 4 miles (6 km)
Ceiling: 6000 feet AGL
Clouds: scattered clouds at 2500 feet AGL
broken clouds at 6000 feet AGL
Weather: -SHRA  (light rain showers)
Forecast for: KJFK (NYC/JFK ARPT , NY, US)
Text: KJFK 261914Z 2619/2724 28016KT P6SM FEW040 SCT250
Forecast period: 1700 to 2000 UTC 27 April 2018
Forecast type: FROM: standard forecast or significant change
Winds: from the E (100 degrees) at 12 MPH (10 knots; 5.2 m/s)
Visibility: 3 miles (5 km)
Ceiling: 1000 feet AGL
Clouds: broken clouds at 1000 feet AGL
Weather: SHRA  (rain showers)
Forecast for: KJFK (NYC/JFK ARPT , NY, US)
Text: KJFK 261914Z 2619/2724 28016KT P6SM FEW040 SCT250
Forecast period: 1700 to 2000 UTC 27 April 2018
Forecast type: FROM: standard forecast or significant change
Winds: from the E (100 degrees) at 12 MPH (10 knots; 5.2 m/s)
Visibility: 3 miles (5 km)
Ceiling: 1000 feet AGL
Clouds: broken clouds at 1000 feet AGL
Weather: SHRA  (rain showers)
Forecast for: KJFK (NYC/JFK ARPT , NY, US)
Text: KJFK 261914Z 2619/2724 28016KT P6SM FEW040 SCT250
Forecast period: 2000 UTC 27 April 2018 to 0000 UTC 28 April 2018
Forecast type: FROM: standard forecast or significant change
Winds: from the ENE (60 degrees) at 7 MPH (6 knots; 3.1 m/s)
Visibility: 2.00 miles (3.22 km)
Ceiling: 800 feet AGL
Clouds: broken clouds at 800 feet AGL
Weather: -DZ BR  (light drizzle, mist)
Forecast for: KJFK (NYC/JFK ARPT , NY, US)
Text: KJFK 261914Z 2619/2724 28016KT P6SM FEW040 SCT250
Forecast period: 2000 UTC 27 April 2018 to 0000 UTC 28 April 2018
Forecast type: FROM: standard forecast or significant change
Winds: from the ENE (60 degrees) at 7 MPH (6 knots; 3.1 m/s)
Visibility: 2.00 miles (3.22 km)
Ceiling: 800 feet AGL
Clouds: broken clouds at 800 feet AGL
Weather: -DZ BR  (light drizzle, mist)

 AIRPORT MAP

 RUNWAY INFORMATION
Runway 04L Runway length 11351 ft Runway width 150 ft
Runway elevation 12 ft Runway displaced threshold 0 ft Runway heading 31
Runway 22R Runway length 11351 ft Runway width 150 ft
Runway elevation 13 ft Runway displaced threshold 2696 ft Runway heading 211
Runway 04R Runway length 8400 ft Runway width 200 ft
Runway elevation 13 ft Runway displaced threshold 0 ft Runway heading 31
Runway 22L Runway length 8400 ft Runway width 200 ft
Runway elevation 13 ft Runway displaced threshold 0 ft Runway heading 211
Runway 13L Runway length 10000 ft Runway width 150 ft
Runway elevation 13 ft Runway displaced threshold 905 ft Runway heading 121
Runway 31R Runway length 10000 ft Runway width 150 ft
Runway elevation 13 ft Runway displaced threshold 1030 ft Runway heading 301
Runway 13R Runway length 14572 ft Runway width 150 ft
Runway elevation 13 ft Runway displaced threshold 2606 ft Runway heading 121
Runway 31L Runway length 14572 ft Runway width 150 ft
Runway elevation 13 ft Runway displaced threshold 3324 ft Runway heading 301

 AIRPORT FREQUENCIES
Type APP Name NEW YORK A Frequency 125.7 MHZ
Type APP Name NEW YORK A Frequency 127.4 MHZ
Type APP Name NEW YORK A Frequency 132.4 MHZ
Type ATIS Name ATIS Frequency 115.1 MHZ
Type CLD Name CLNC DEL Frequency 135.05 MHZ
Type DEP Name NEW YORK D Frequency 135.9 MHZ
Type GND Name GND Frequency 121.9 MHZ
Type RDO Name NEW YORK R Frequency 115.9 MHZ
Type TWR Name KENNEDY TW Frequency 119.1 MHZ
Type UNIC Name UNICOM Frequency 122.95 MHZ

 AIRPORT NEAR NAVIGATION AIDS
Type VOR-DME Name Canarsie Frequency 112300 KHZ
Type VOR-DME Name Kennedy Frequency 115900 KHZ



v2.6.1